sensor_id;sensor_type;location;lat;lon;timestamp;pressure;altitude;pressure_sealevel;temperature;humidity
38022;BME280;23832;43.216;27.946;2023-05-03T00:01:39;101613.75;;;15.37;100.00
38022;BME280;23832;43.216;27.946;2023-05-03T00:03:43;101604.38;;;15.49;100.00
38022;BME280;23832;43.216;27.946;2023-05-03T00:05:50;101604.22;;;15.65;100.00
38022;BME280;23832;43.216;27.946;2023-05-03T00:07:53;101603.28;;;15.58;100.00
38022;BME280;23832;43.216;27.946;2023-05-03T00:09:56;101611.25;;;15.58;100.00
38022;BME280;23832;43.216;27.946;2023-05-03T00:12:00;101613.69;;;15.82;100.00
38022;BME280;23832;43.216;27.946;2023-05-03T00:14:02;101607.34;;;15.83;100.00
38022;BME280;23832;43.216;27.946;2023-05-03T00:16:04;101611.47;;;15.86;100.00
38022;BME280;23832;43.216;27.946;2023-05-03T00:18:09;101606.06;;;15.94;100.00
38022;BME280;23832;43.216;27.946;2023-05-03T00:20:10;101608.16;;;15.69;100.00
38022;BME280;23832;43.216;27.946;2023-05-03T00:22:14;101603.13;;;15.89;100.00
38022;BME280;23832;43.216;27.946;2023-05-03T00:24:17;101598.63;;;15.89;100.00
38022;BME280;23832;43.216;27.946;2023-05-03T00:26:21;101607.84;;;16.23;100.00
38022;BME280;23832;43.216;27.946;2023-05-03T00:28:25;101606.13;;;16.15;100.00
38022;BME280;23832;43.216;27.946;2023-05-03T00:30:28;101603.94;;;16.19;100.00
38022;BME280;23832;43.216;27.946;2023-05-03T00:32:30;101602.00;;;16.28;100.00
38022;BME280;23832;43.216;27.946;2023-05-03T00:34:34;101596.81;;;16.41;100.00
38022;BME280;23832;43.216;27.946;2023-05-03T00:36:36;101596.56;;;16.36;100.00
38022;BME280;23832;43.216;27.946;2023-05-03T00:38:39;101590.44;;;16.57;100.00
38022;BME280;23832;43.216;27.946;2023-05-03T00:40:41;101590.69;;;16.26;100.00
38022;BME280;23832;43.216;27.946;2023-05-03T00:42:43;101593.28;;;16.19;100.00
38022;BME280;23832;43.216;27.946;2023-05-03T00:44:46;101595.50;;;16.01;100.00
38022;BME280;23832;43.216;27.946;2023-05-03T00:46:48;101595.16;;;15.74;100.00
38022;BME280;23832;43.216;27.946;2023-05-03T00:48:51;101595.78;;;15.76;100.00
38022;BME280;23832;43.216;27.946;2023-05-03T00:50:57;101599.94;;;15.64;100.00
38022;BME280;23832;43.216;27.946;2023-05-03T00:53:01;101603.88;;;15.83;100.00
38022;BME280;23832;43.216;27.946;2023-05-03T00:55:03;101598.34;;;15.55;100.00
38022;BME280;23832;43.216;27.946;2023-05-03T00:57:06;101599.38;;;15.31;100.00
38022;BME280;23832;43.216;27.946;2023-05-03T00:59:11;101592.50;;;15.37;100.00
38022;BME280;23832;43.216;27.946;2023-05-03T01:01:13;101597.75;;;15.45;100.00
38022;BME280;23832;43.216;27.946;2023-05-03T01:03:16;101590.16;;;15.42;100.00
38022;BME280;23832;43.216;27.946;2023-05-03T01:05:17;101597.38;;;15.33;100.00
38022;BME280;23832;43.216;27.946;2023-05-03T01:07:26;101582.44;;;15.32;100.00
38022;BME280;23832;43.216;27.946;2023-05-03T01:09:34;101585.84;;;15.41;100.00
38022;BME280;23832;43.216;27.946;2023-05-03T01:11:44;101583.91;;;15.34;100.00
38022;BME280;23832;43.216;27.946;2023-05-03T01:13:51;101582.38;;;15.40;100.00
38022;BME280;23832;43.216;27.946;2023-05-03T01:15:56;101518.56;;;15.11;100.00
38022;BME280;23832;43.216;27.946;2023-05-03T01:18:01;101591.59;;;15.29;100.00
38022;BME280;23832;43.216;27.946;2023-05-03T01:20:05;101586.41;;;15.51;100.00
38022;BME280;23832;43.216;27.946;2023-05-03T01:22:14;101582.63;;;15.30;100.00
38022;BME280;23832;43.216;27.946;2023-05-03T01:24:21;101588.59;;;15.47;100.00
38022;BME280;23832;43.216;27.946;2023-05-03T01:26:29;101575.00;;;15.65;100.00
38022;BME280;23832;43.216;27.946;2023-05-03T01:28:33;101587.31;;;15.58;100.00
38022;BME280;23832;43.216;27.946;2023-05-03T01:30:35;101577.31;;;15.45;100.00
38022;BME280;23832;43.216;27.946;2023-05-03T01:32:46;101580.31;;;15.65;100.00
38022;BME280;23832;43.216;27.946;2023-05-03T01:34:53;101586.53;;;15.87;100.00
38022;BME280;23832;43.216;27.946;2023-05-03T01:36:58;101580.19;;;16.03;100.00
38022;BME280;23832;43.216;27.946;2023-05-03T01:39:03;101577.78;;;16.08;100.00
38022;BME280;23832;43.216;27.946;2023-05-03T01:41:08;101583.63;;;15.82;100.00
38022;BME280;23832;43.216;27.946;2023-05-03T01:43:14;101595.69;;;15.70;100.00
38022;BME280;23832;43.216;27.946;2023-05-03T01:45:18;101595.78;;;15.61;100.00
38022;BME280;23832;43.216;27.946;2023-05-03T01:47:20;101589.84;;;15.74;100.00
38022;BME280;23832;43.216;27.946;2023-05-03T01:49:22;101593.94;;;15.62;100.00
38022;BME280;23832;43.216;27.946;2023-05-03T01:51:25;101591.31;;;15.77;100.00
38022;BME280;23832;43.216;27.946;2023-05-03T01:53:27;101582.88;;;15.73;100.00
38022;BME280;23832;43.216;27.946;2023-05-03T01:55:32;101585.16;;;15.61;100.00
38022;BME280;23832;43.216;27.946;2023-05-03T01:57:35;101588.69;;;15.54;100.00
38022;BME280;23832;43.216;27.946;2023-05-03T01:59:42;101583.66;;;15.59;100.00
38022;BME280;23832;43.216;27.946;2023-05-03T02:01:45;101583.31;;;15.77;100.00
38022;BME280;23832;43.216;27.946;2023-05-03T02:03:47;101578.16;;;16.05;100.00
38022;BME280;23832;43.216;27.946;2023-05-03T02:05:50;101581.56;;;15.69;100.00
38022;BME280;23832;43.216;27.946;2023-05-03T02:07:53;101579.84;;;15.61;100.00
38022;BME280;23832;43.216;27.946;2023-05-03T02:09:56;101581.81;;;15.45;100.00
38022;BME280;23832;43.216;27.946;2023-05-03T02:11:59;101589.78;;;15.45;100.00
38022;BME280;23832;43.216;27.946;2023-05-03T02:14:08;101592.09;;;15.48;100.00
38022;BME280;23832;43.216;27.946;2023-05-03T02:16:13;101589.75;;;15.68;100.00
38022;BME280;23832;43.216;27.946;2023-05-03T02:18:16;101584.69;;;15.87;100.00
38022;BME280;23832;43.216;27.946;2023-05-03T02:20:19;101587.81;;;15.76;100.00
38022;BME280;23832;43.216;27.946;2023-05-03T02:22:22;101584.13;;;15.63;100.00
38022;BME280;23832;43.216;27.946;2023-05-03T02:24:28;101583.97;;;15.64;100.00
38022;BME280;23832;43.216;27.946;2023-05-03T02:26:30;101588.34;;;15.57;100.00
38022;BME280;23832;43.216;27.946;2023-05-03T02:28:32;101589.03;;;15.74;100.00
38022;BME280;23832;43.216;27.946;2023-05-03T02:30:43;101588.28;;;15.65;100.00
38022;BME280;23832;43.216;27.946;2023-05-03T02:32:47;101589.03;;;15.74;100.00
38022;BME280;23832;43.216;27.946;2023-05-03T02:34:49;101598.09;;;15.65;100.00
38022;BME280;23832;43.216;27.946;2023-05-03T02:36:51;101599.69;;;15.51;100.00
38022;BME280;23832;43.216;27.946;2023-05-03T02:38:54;101603.28;;;15.58;100.00
38022;BME280;23832;43.216;27.946;2023-05-03T02:40:55;101600.41;;;15.45;100.00
38022;BME280;23832;43.216;27.946;2023-05-03T02:42:59;101601.16;;;15.39;100.00
38022;BME280;23832;43.216;27.946;2023-05-03T02:45:05;101595.84;;;15.39;100.00
38022;BME280;23832;43.216;27.946;2023-05-03T02:47:10;101596.66;;;15.39;100.00
38022;BME280;23832;43.216;27.946;2023-05-03T02:49:16;101598.69;;;15.37;100.00
38022;BME280;23832;43.216;27.946;2023-05-03T02:51:18;101597.81;;;15.37;100.00
38022;BME280;23832;43.216;27.946;2023-05-03T02:53:21;101596.03;;;15.37;100.00
38022;BME280;23832;43.216;27.946;2023-05-03T02:55:24;101602.03;;;15.31;100.00
38022;BME280;23832;43.216;27.946;2023-05-03T02:57:27;101592.25;;;15.31;100.00
38022;BME280;23832;43.216;27.946;2023-05-03T02:59:30;101596.03;;;15.52;100.00
38022;BME280;23832;43.216;27.946;2023-05-03T03:01:33;101601.94;;;15.92;100.00
38022;BME280;23832;43.216;27.946;2023-05-03T03:03:35;101603.50;;;16.01;100.00
38022;BME280;23832;43.216;27.946;2023-05-03T03:05:39;101605.78;;;15.74;100.00
38022;BME280;23832;43.216;27.946;2023-05-03T03:07:41;101604.13;;;15.88;100.00
38022;BME280;23832;43.216;27.946;2023-05-03T03:09:43;101601.94;;;15.92;100.00
38022;BME280;23832;43.216;27.946;2023-05-03T03:11:47;101600.38;;;15.97;100.00
38022;BME280;23832;43.216;27.946;2023-05-03T03:13:49;101598.47;;;15.76;100.00
38022;BME280;23832;43.216;27.946;2023-05-03T03:15:51;101604.59;;;15.77;100.00
38022;BME280;23832;43.216;27.946;2023-05-03T03:17:55;101594.94;;;16.05;100.00
38022;BME280;23832;43.216;27.946;2023-05-03T03:19:58;101600.16;;;16.13;100.00
38022;BME280;23832;43.216;27.946;2023-05-03T03:22:02;101600.84;;;16.01;100.00
38022;BME280;23832;43.216;27.946;2023-05-03T03:24:05;101600.19;;;15.84;100.00
38022;BME280;23832;43.216;27.946;2023-05-03T03:26:07;101602.00;;;15.98;100.00
38022;BME280;23832;43.216;27.946;2023-05-03T03:28:09;101601.91;;;16.06;100.00
38022;BME280;23832;43.216;27.946;2023-05-03T03:30:12;101591.56;;;16.11;100.00
38022;BME280;23832;43.216;27.946;2023-05-03T03:32:14;101600.28;;;15.91;100.00
38022;BME280;23832;43.216;27.946;2023-05-03T03:34:18;101598.00;;;16.02;100.00
38022;BME280;23832;43.216;27.946;2023-05-03T03:36:20;101602.44;;;16.31;100.00
38022;BME280;23832;43.216;27.946;2023-05-03T03:38:23;101606.50;;;16.27;100.00
38022;BME280;23832;43.216;27.946;2023-05-03T03:40:25;101599.50;;;16.26;100.00
38022;BME280;23832;43.216;27.946;2023-05-03T03:42:27;101604.38;;;16.23;100.00
38022;BME280;23832;43.216;27.946;2023-05-03T03:44:29;101611.50;;;16.37;100.00
38022;BME280;23832;43.216;27.946;2023-05-03T03:46:33;101622.81;;;16.24;100.00
38022;BME280;23832;43.216;27.946;2023-05-03T03:48:36;101625.03;;;16.71;100.00
38022;BME280;23832;43.216;27.946;2023-05-03T03:50:37;101622.88;;;16.82;100.00
38022;BME280;23832;43.216;27.946;2023-05-03T03:52:39;101622.00;;;16.60;100.00
38022;BME280;23832;43.216;27.946;2023-05-03T03:54:44;101625.34;;;16.83;100.00
38022;BME280;23832;43.216;27.946;2023-05-03T03:56:46;101616.72;;;16.81;100.00
38022;BME280;23832;43.216;27.946;2023-05-03T03:58:50;101619.56;;;17.01;100.00
38022;BME280;23832;43.216;27.946;2023-05-03T04:00:54;101616.22;;;16.92;100.00
38022;BME280;23832;43.216;27.946;2023-05-03T04:02:56;101608.28;;;16.99;100.00
38022;BME280;23832;43.216;27.946;2023-05-03T04:04:57;101614.75;;;16.90;100.00
38022;BME280;23832;43.216;27.946;2023-05-03T04:07:00;101610.59;;;17.30;100.00
38022;BME280;23832;43.216;27.946;2023-05-03T04:09:03;101605.69;;;17.34;100.00
38022;BME280;23832;43.216;27.946;2023-05-03T04:11:09;101607.50;;;17.26;100.00
38022;BME280;23832;43.216;27.946;2023-05-03T04:13:20;101601.75;;;17.57;100.00
38022;BME280;23832;43.216;27.946;2023-05-03T04:15:22;101601.22;;;17.69;100.00
38022;BME280;23832;43.216;27.946;2023-05-03T04:17:24;101605.47;;;17.91;100.00
38022;BME280;23832;43.216;27.946;2023-05-03T04:19:28;101608.44;;;18.09;100.00
38022;BME280;23832;43.216;27.946;2023-05-03T04:21:30;101614.88;;;17.87;100.00
38022;BME280;23832;43.216;27.946;2023-05-03T04:23:33;101602.91;;;18.11;100.00
38022;BME280;23832;43.216;27.946;2023-05-03T04:25:35;101612.59;;;18.19;100.00
38022;BME280;23832;43.216;27.946;2023-05-03T04:27:47;101621.22;;;18.21;100.00
38022;BME280;23832;43.216;27.946;2023-05-03T04:29:49;101618.38;;;18.29;100.00
38022;BME280;23832;43.216;27.946;2023-05-03T04:31:51;101615.50;;;17.82;100.00
38022;BME280;23832;43.216;27.946;2023-05-03T04:33:53;101618.78;;;17.56;100.00
38022;BME280;23832;43.216;27.946;2023-05-03T04:35:55;101617.81;;;17.64;100.00
38022;BME280;23832;43.216;27.946;2023-05-03T04:38:01;101623.19;;;18.05;100.00
38022;BME280;23832;43.216;27.946;2023-05-03T04:40:04;101616.50;;;17.81;100.00
38022;BME280;23832;43.216;27.946;2023-05-03T04:42:08;101622.31;;;17.64;100.00
38022;BME280;23832;43.216;27.946;2023-05-03T04:44:12;101627.03;;;17.62;100.00
38022;BME280;23832;43.216;27.946;2023-05-03T04:46:15;101623.91;;;17.86;100.00
38022;BME280;23832;43.216;27.946;2023-05-03T04:48:17;101620.97;;;18.09;100.00
38022;BME280;23832;43.216;27.946;2023-05-03T04:50:20;101612.41;;;18.27;100.00
38022;BME280;23832;43.216;27.946;2023-05-03T04:52:22;101615.28;;;18.32;100.00
38022;BME280;23832;43.216;27.946;2023-05-03T04:54:23;101609.75;;;18.27;100.00
38022;BME280;23832;43.216;27.946;2023-05-03T04:56:25;101605.94;;;18.62;100.00
38022;BME280;23832;43.216;27.946;2023-05-03T04:58:27;101613.22;;;19.21;100.00
38022;BME280;23832;43.216;27.946;2023-05-03T05:00:30;101612.81;;;19.24;100.00
38022;BME280;23832;43.216;27.946;2023-05-03T05:02:32;101618.53;;;18.21;100.00
38022;BME280;23832;43.216;27.946;2023-05-03T05:04:34;101620.91;;;18.57;100.00
38022;BME280;23832;43.216;27.946;2023-05-03T05:06:36;101623.84;;;18.68;100.00
38022;BME280;23832;43.216;27.946;2023-05-03T05:08:39;101631.50;;;19.05;100.00
38022;BME280;23832;43.216;27.946;2023-05-03T05:10:42;101626.38;;;19.29;100.00
38022;BME280;23832;43.216;27.946;2023-05-03T05:12:44;101637.28;;;19.61;100.00
38022;BME280;23832;43.216;27.946;2023-05-03T05:14:47;101634.94;;;19.98;100.00
38022;BME280;23832;43.216;27.946;2023-05-03T05:16:50;101642.00;;;19.66;100.00
38022;BME280;23832;43.216;27.946;2023-05-03T05:18:54;101635.63;;;19.07;100.00
38022;BME280;23832;43.216;27.946;2023-05-03T05:20:56;101641.75;;;18.81;100.00
38022;BME280;23832;43.216;27.946;2023-05-03T05:23:06;101640.34;;;19.32;100.00
38022;BME280;23832;43.216;27.946;2023-05-03T05:25:08;101648.59;;;19.63;100.00
38022;BME280;23832;43.216;27.946;2023-05-03T05:27:17;101634.00;;;19.19;100.00
38022;BME280;23832;43.216;27.946;2023-05-03T05:29:19;101639.72;;;19.03;100.00
38022;BME280;23832;43.216;27.946;2023-05-03T05:31:27;101641.59;;;19.09;100.00
38022;BME280;23832;43.216;27.946;2023-05-03T05:33:34;101647.97;;;19.48;100.00
38022;BME280;23832;43.216;27.946;2023-05-03T05:35:35;101646.13;;;19.22;100.00
38022;BME280;23832;43.216;27.946;2023-05-03T05:37:37;101639.59;;;18.50;100.00
38022;BME280;23832;43.216;27.946;2023-05-03T05:39:41;101643.00;;;18.31;100.00
38022;BME280;23832;43.216;27.946;2023-05-03T05:41:49;101640.16;;;19.00;100.00
38022;BME280;23832;43.216;27.946;2023-05-03T05:43:51;101646.53;;;19.25;100.00
38022;BME280;23832;43.216;27.946;2023-05-03T05:45:54;101652.09;;;19.17;100.00
38022;BME280;23832;43.216;27.946;2023-05-03T05:47:57;101642.63;;;19.21;100.00
38022;BME280;23832;43.216;27.946;2023-05-03T05:50:01;101651.03;;;18.92;100.00
38022;BME280;23832;43.216;27.946;2023-05-03T05:52:04;101660.06;;;19.90;100.00
38022;BME280;23832;43.216;27.946;2023-05-03T05:54:06;101666.69;;;19.81;100.00
38022;BME280;23832;43.216;27.946;2023-05-03T05:56:08;101661.75;;;19.71;100.00
38022;BME280;23832;43.216;27.946;2023-05-03T05:58:11;101657.22;;;19.45;100.00
38022;BME280;23832;43.216;27.946;2023-05-03T06:00:17;101662.38;;;19.07;100.00
38022;BME280;23832;43.216;27.946;2023-05-03T06:02:20;101665.47;;;19.17;100.00
38022;BME280;23832;43.216;27.946;2023-05-03T06:04:27;101669.19;;;19.69;100.00
38022;BME280;23832;43.216;27.946;2023-05-03T06:06:38;101672.22;;;19.20;100.00
38022;BME280;23832;43.216;27.946;2023-05-03T06:08:41;101668.53;;;19.41;100.00
38022;BME280;23832;43.216;27.946;2023-05-03T06:10:43;101661.28;;;19.94;100.00
38022;BME280;23832;43.216;27.946;2023-05-03T06:12:45;101679.69;;;20.42;100.00
38022;BME280;23832;43.216;27.946;2023-05-03T06:14:51;101670.38;;;19.87;100.00
38022;BME280;23832;43.216;27.946;2023-05-03T06:16:54;101665.28;;;19.32;100.00
38022;BME280;23832;43.216;27.946;2023-05-03T06:18:57;101676.94;;;18.91;100.00
38022;BME280;23832;43.216;27.946;2023-05-03T06:21:03;101682.09;;;19.19;100.00
38022;BME280;23832;43.216;27.946;2023-05-03T06:23:07;101684.59;;;19.67;100.00
38022;BME280;23832;43.216;27.946;2023-05-03T06:25:10;101677.34;;;20.07;100.00
38022;BME280;23832;43.216;27.946;2023-05-03T06:27:13;101683.72;;;19.93;100.00
38022;BME280;23832;43.216;27.946;2023-05-03T06:29:15;101694.91;;;20.55;99.57
38022;BME280;23832;43.216;27.946;2023-05-03T06:31:17;101681.75;;;20.47;83.55
38022;BME280;23832;43.216;27.946;2023-05-03T06:33:20;101677.47;;;21.09;80.82
38022;BME280;23832;43.216;27.946;2023-05-03T06:35:23;101679.75;;;21.62;75.01
38022;BME280;23832;43.216;27.946;2023-05-03T06:37:25;101665.81;;;21.53;76.79
38022;BME280;23832;43.216;27.946;2023-05-03T06:39:32;101663.88;;;21.60;76.20
38022;BME280;23832;43.216;27.946;2023-05-03T06:41:34;101669.72;;;21.32;74.95
38022;BME280;23832;43.216;27.946;2023-05-03T06:43:37;101663.75;;;21.23;76.09
38022;BME280;23832;43.216;27.946;2023-05-03T06:45:40;101670.41;;;21.46;73.61
38022;BME280;23832;43.216;27.946;2023-05-03T06:47:42;101656.81;;;20.84;73.28
38022;BME280;23832;43.216;27.946;2023-05-03T06:49:46;101656.06;;;20.71;74.29
38022;BME280;23832;43.216;27.946;2023-05-03T06:51:49;101655.88;;;21.04;71.64
38022;BME280;23832;43.216;27.946;2023-05-03T06:53:54;101655.09;;;20.96;70.16
38022;BME280;23832;43.216;27.946;2023-05-03T06:56:01;101658.88;;;20.82;63.73
38022;BME280;23832;43.216;27.946;2023-05-03T06:58:04;101659.03;;;20.94;64.89
38022;BME280;23832;43.216;27.946;2023-05-03T07:00:14;101657.81;;;21.21;62.57
38022;BME280;23832;43.216;27.946;2023-05-03T07:02:16;101652.91;;;20.42;63.49
38022;BME280;23832;43.216;27.946;2023-05-03T07:04:18;101653.72;;;20.49;65.22
38022;BME280;23832;43.216;27.946;2023-05-03T07:06:20;101652.56;;;20.77;65.28
38022;BME280;23832;43.216;27.946;2023-05-03T07:08:23;101663.19;;;20.52;64.46
38022;BME280;23832;43.216;27.946;2023-05-03T07:10:29;101674.25;;;20.62;66.38
38022;BME280;23832;43.216;27.946;2023-05-03T07:12:33;101679.94;;;20.27;66.67
38022;BME280;23832;43.216;27.946;2023-05-03T07:14:35;101672.34;;;20.24;64.50
38022;BME280;23832;43.216;27.946;2023-05-03T07:16:37;101669.22;;;20.27;63.96
38022;BME280;23832;43.216;27.946;2023-05-03T07:18:40;101655.50;;;20.93;62.20
38022;BME280;23832;43.216;27.946;2023-05-03T07:20:42;101668.25;;;21.79;56.53
38022;BME280;23832;43.216;27.946;2023-05-03T07:22:44;101672.41;;;21.25;56.94
38022;BME280;23832;43.216;27.946;2023-05-03T07:24:47;101675.84;;;21.82;56.91
38022;BME280;23832;43.216;27.946;2023-05-03T07:26:49;101678.38;;;20.58;60.42
38022;BME280;23832;43.216;27.946;2023-05-03T07:28:52;101671.47;;;21.13;59.47
38022;BME280;23832;43.216;27.946;2023-05-03T07:30:55;101659.31;;;20.79;58.42
38022;BME280;23832;43.216;27.946;2023-05-03T07:32:57;101669.38;;;20.46;59.88
38022;BME280;23832;43.216;27.946;2023-05-03T07:34:59;101671.13;;;21.03;58.87
38022;BME280;23832;43.216;27.946;2023-05-03T07:37:03;101668.25;;;21.54;57.30
38022;BME280;23832;43.216;27.946;2023-05-03T07:39:05;101669.63;;;22.25;54.31
38022;BME280;23832;43.216;27.946;2023-05-03T07:41:07;101676.13;;;22.66;53.40
38022;BME280;23832;43.216;27.946;2023-05-03T07:43:09;101699.63;;;23.42;52.09
38022;BME280;23832;43.216;27.946;2023-05-03T07:45:13;101704.84;;;24.71;49.75
38022;BME280;23832;43.216;27.946;2023-05-03T07:47:15;101709.25;;;24.60;48.78
38022;BME280;23832;43.216;27.946;2023-05-03T07:49:17;101673.56;;;23.66;47.91
38022;BME280;23832;43.216;27.946;2023-05-03T07:51:19;101712.69;;;22.85;47.71
38022;BME280;23832;43.216;27.946;2023-05-03T07:53:21;101712.78;;;23.74;48.83
38022;BME280;23832;43.216;27.946;2023-05-03T07:55:24;101721.50;;;22.74;48.76
38022;BME280;23832;43.216;27.946;2023-05-03T07:57:26;101720.59;;;21.89;49.32
38022;BME280;23832;43.216;27.946;2023-05-03T07:59:30;101722.59;;;23.80;47.90
38022;BME280;23832;43.216;27.946;2023-05-03T08:01:40;101725.22;;;23.45;49.05
38022;BME280;23832;43.216;27.946;2023-05-03T08:03:44;101735.59;;;23.95;48.14
38022;BME280;23832;43.216;27.946;2023-05-03T08:05:49;101742.19;;;23.34;49.64
38022;BME280;23832;43.216;27.946;2023-05-03T08:07:51;101747.19;;;24.07;48.55
38022;BME280;23832;43.216;27.946;2023-05-03T08:09:55;101749.81;;;22.77;50.54
38022;BME280;23832;43.216;27.946;2023-05-03T08:11:59;101752.94;;;23.75;48.21
38022;BME280;23832;43.216;27.946;2023-05-03T08:14:03;101765.19;;;23.18;49.44
38022;BME280;23832;43.216;27.946;2023-05-03T08:16:05;101762.63;;;24.23;49.73
38022;BME280;23832;43.216;27.946;2023-05-03T08:18:11;101764.41;;;24.18;47.99
38022;BME280;23832;43.216;27.946;2023-05-03T08:20:13;101763.91;;;23.62;49.25
38022;BME280;23832;43.216;27.946;2023-05-03T08:22:16;101763.47;;;23.77;49.42
38022;BME280;23832;43.216;27.946;2023-05-03T08:24:17;101751.16;;;24.16;49.56
38022;BME280;23832;43.216;27.946;2023-05-03T08:26:20;101745.53;;;23.59;50.32
38022;BME280;23832;43.216;27.946;2023-05-03T08:28:23;101745.25;;;23.49;50.90
38022;BME280;23832;43.216;27.946;2023-05-03T08:30:25;101759.47;;;23.26;51.43
38022;BME280;23832;43.216;27.946;2023-05-03T08:32:28;101757.28;;;22.75;52.35
38022;BME280;23832;43.216;27.946;2023-05-03T08:34:33;101754.81;;;21.75;54.21
38022;BME280;23832;43.216;27.946;2023-05-03T08:36:35;101752.44;;;21.85;53.76
38022;BME280;23832;43.216;27.946;2023-05-03T08:38:38;101767.19;;;21.76;55.70
38022;BME280;23832;43.216;27.946;2023-05-03T08:40:41;101766.09;;;20.82;56.92
38022;BME280;23832;43.216;27.946;2023-05-03T08:42:44;101770.75;;;20.42;58.95
38022;BME280;23832;43.216;27.946;2023-05-03T08:44:47;101769.34;;;21.29;58.98
38022;BME280;23832;43.216;27.946;2023-05-03T08:46:49;101768.13;;;21.25;58.88
38022;BME280;23832;43.216;27.946;2023-05-03T08:48:51;101765.91;;;21.78;58.40
38022;BME280;23832;43.216;27.946;2023-05-03T08:50:54;101769.66;;;23.24;54.26
38022;BME280;23832;43.216;27.946;2023-05-03T08:52:59;101764.19;;;24.71;50.83
38022;BME280;23832;43.216;27.946;2023-05-03T08:55:00;101765.19;;;25.22;48.35
38022;BME280;23832;43.216;27.946;2023-05-03T08:57:07;101762.91;;;25.47;47.54
38022;BME280;23832;43.216;27.946;2023-05-03T08:59:11;101781.16;;;24.83;47.70
38022;BME280;23832;43.216;27.946;2023-05-03T09:01:16;101764.50;;;25.77;46.34
38022;BME280;23832;43.216;27.946;2023-05-03T09:03:19;101764.81;;;25.97;45.25
38022;BME280;23832;43.216;27.946;2023-05-03T09:05:31;101759.66;;;25.62;45.37
38022;BME280;23832;43.216;27.946;2023-05-03T09:07:34;101759.59;;;26.73;44.39
38022;BME280;23832;43.216;27.946;2023-05-03T09:09:37;101751.56;;;27.32;42.35
38022;BME280;23832;43.216;27.946;2023-05-03T09:11:40;101752.16;;;28.14;40.64
38022;BME280;23832;43.216;27.946;2023-05-03T09:13:42;101752.63;;;28.53;39.79
38022;BME280;23832;43.216;27.946;2023-05-03T09:15:51;101749.50;;;29.37;37.40
38022;BME280;23832;43.216;27.946;2023-05-03T09:18:06;101744.63;;;29.24;37.11
38022;BME280;23832;43.216;27.946;2023-05-03T09:20:09;101733.63;;;30.26;35.43
38022;BME280;23832;43.216;27.946;2023-05-03T09:22:11;101713.06;;;29.89;36.67
38022;BME280;23832;43.216;27.946;2023-05-03T09:24:15;101721.84;;;29.30;35.26
38022;BME280;23832;43.216;27.946;2023-05-03T09:26:25;101722.09;;;29.08;35.72
38022;BME280;23832;43.216;27.946;2023-05-03T09:28:28;101722.31;;;28.76;36.04
38022;BME280;23832;43.216;27.946;2023-05-03T09:30:33;101708.19;;;29.86;33.85
38022;BME280;23832;43.216;27.946;2023-05-03T09:32:46;101707.88;;;28.61;35.65
38022;BME280;23832;43.216;27.946;2023-05-03T09:34:48;101718.47;;;28.72;35.85
38022;BME280;23832;43.216;27.946;2023-05-03T09:36:51;101721.28;;;26.59;37.10
38022;BME280;23832;43.216;27.946;2023-05-03T09:38:55;101730.13;;;25.72;39.64
38022;BME280;23832;43.216;27.946;2023-05-03T09:40:59;101715.84;;;25.94;40.15
38022;BME280;23832;43.216;27.946;2023-05-03T09:43:05;101709.44;;;26.87;38.93
38022;BME280;23832;43.216;27.946;2023-05-03T09:45:08;101712.59;;;26.14;39.44
38022;BME280;23832;43.216;27.946;2023-05-03T09:49:38;101710.75;;;27.12;38.28
38022;BME280;23832;43.216;27.946;2023-05-03T09:51:40;101718.91;;;27.49;37.08
38022;BME280;23832;43.216;27.946;2023-05-03T09:53:42;101715.81;;;27.67;35.78
38022;BME280;23832;43.216;27.946;2023-05-03T09:55:44;101706.66;;;30.40;33.71
38022;BME280;23832;43.216;27.946;2023-05-03T09:57:53;101708.75;;;29.73;33.32
38022;BME280;23832;43.216;27.946;2023-05-03T09:59:56;101701.47;;;29.23;33.69
38022;BME280;23832;43.216;27.946;2023-05-03T10:02:01;101698.34;;;28.48;33.79
38022;BME280;23832;43.216;27.946;2023-05-03T10:04:04;101688.13;;;28.86;34.40
38022;BME280;23832;43.216;27.946;2023-05-03T10:06:10;101682.59;;;30.08;33.63
38022;BME280;23832;43.216;27.946;2023-05-03T10:08:17;101687.16;;;27.77;35.29
38022;BME280;23832;43.216;27.946;2023-05-03T10:10:21;101685.03;;;28.31;34.82
38022;BME280;23832;43.216;27.946;2023-05-03T10:12:29;101685.88;;;28.57;32.75
38022;BME280;23832;43.216;27.946;2023-05-03T10:14:36;101673.22;;;29.14;31.65
38022;BME280;23832;43.216;27.946;2023-05-03T10:16:42;101667.75;;;28.88;30.53
38022;BME280;23832;43.216;27.946;2023-05-03T10:18:47;101671.66;;;28.24;30.18
38022;BME280;23832;43.216;27.946;2023-05-03T10:20:52;101666.47;;;27.60;32.70
38022;BME280;23832;43.216;27.946;2023-05-03T10:23:05;101674.16;;;28.36;32.60
38022;BME280;23832;43.216;27.946;2023-05-03T10:25:10;101670.28;;;28.17;32.27
38022;BME280;23832;43.216;27.946;2023-05-03T10:27:12;101666.09;;;26.82;33.96
38022;BME280;23832;43.216;27.946;2023-05-03T10:31:48;101675.94;;;26.23;31.35
38022;BME280;23832;43.216;27.946;2023-05-03T10:33:50;101675.38;;;26.92;32.43
38022;BME280;23832;43.216;27.946;2023-05-03T10:35:53;101675.72;;;28.27;32.10
38022;BME280;23832;43.216;27.946;2023-05-03T10:37:56;101673.22;;;29.24;31.38